ANTO2: Kiamichi River, Antlers, OKla

                                SHEF ID:       ANTO2     Kiamichi River near Antlers, OK
STATION TYPE:
Regulating: Stage = 22.00, Flow = 20000

PRECIP PRECIP(A) STAGE RIV-FLOW BAT-LOAD
in in ft cfs volt
Ccp-Rev Ccp-Rev Ccp-Rev Ccp-Rev Ccp-Rev
(America/Chicago)
04/27 00:00 0.00 ---- 5.45 1140 12.60
04/27 01:00 0.00 ---- 5.40 1120 12.58
04/27 02:00 0.00 ---- 5.36 1090 12.57
04/27 03:00 0.00 ---- 5.30 1060 12.56
04/27 04:00 0.00 ---- 5.26 1040 12.54
04/27 05:00 0.00 ---- 5.21 1020 12.53
04/27 06:00 0.00 ---- 5.16 997 12.53
04/27 07:00 0.00 ---- 5.12 978 12.50
04/27 08:00 0.00 ---- 5.07 955 12.53
04/27 09:00 0.00 ---- 5.02 928 12.71
04/27 10:00 0.00 ---- 4.98 910 13.10
04/27 11:00 0.00 ---- 4.95 897 13.21
04/27 12:00 0.00 ---- 4.88 866 13.07
04/27 13:00 0.00 ---- 4.86 858 12.99
04/27 14:00 0.00 ---- 4.82 840 12.93
04/27 15:00 0.00 ---- 4.78 823 12.90
04/27 16:00 0.00 ---- 4.73 802 12.86
04/27 17:00 0.00 ---- 4.71 794 12.84
04/27 18:00 0.00 ---- 4.68 782 12.82
04/27 19:00 0.00 ---- 4.64 765 12.80
04/27 20:00 0.00 ---- 4.62 757 12.75
04/27 21:00 0.00 ---- 4.59 745 12.67
04/27 22:00 0.00 ---- 4.58 741 12.63
04/27 23:00 ---- ---- ---- ---- ----
Data processed at Tue 28Apr2026 04:32 GMT

NOTICE: If you are parsing this page

Please convert to using our Data API. Starting early 2026 we will be migrating to: https://water.usace.army.mil with modern pages rendered in JavaScript. When this migration completes you will no longer be able to scrape this page! CWMSDataAPI (CDA)

Timeseries IDs (TSIDs)

TSIDs used from left to right in the data table
ANTL.Precip-Inc.Total.1Hour.1Hour.Ccp-Rev
ANTL.Precip-Inc Alt.Total.1Hour.1Hour.Ccp-Rev
ANTL.Stage.Inst.1Hour.0.Ccp-Rev
ANTL.Flow.Inst.1Hour.0.Ccp-Rev
ANTL.Volt-Battery Load.Inst.1Hour.0.Ccp-Rev

                            

All information presented herein is the property of the government of the United States of America and may be revised or deleted at any time without prior notice. Dissemination of this information without the expressed written consent of the Public Affairs Office, Tulsa District U.S. Army Corps of Engineers is strictly prohibited. These data are gathered electronically and, as presented, have NOT undergone any form of quality control. These data are NOT guaranteed to be valid or correct.